Terminal Aerodrome Forecast
Issued by NWS Los Angeles, CA

Home | Current Version | Previous Version | Text Only | Print | Product List | Glossary On
Versions: 1 2 3 4 5 6 7 8 9 10 11 12 13 14 15 16 17 18
256
FTUS46 KLOX 270903 AAA
TAFSMX
TAF AMD
KSMX 270903Z 2709/2806 VRB03KT P6SM BKN025 BKN035
     FM271800 32007KT P6SM SCT025 BKN040
     FM272100 32015G20KT P6SM BKN040
     FM280300 32010KT P6SM SCT050=

USA.gov is the U.S. government's official web portal to all federal, state and local government web resources and services.